Sheridan, Michigan
Current Conditions -  °F | °C
As of 2:54 AM on Saturday 25 Oct 2014 (Local Time) from KY70 Reporting Station
Haze Haze  
Wind Chill: 46°   Ceiling: 9000
Heat Index: 49°   Visibility: 5mi
Dew Point: 48°   Wind: 7mph
Humidity: 96%   Direction: 200°SSW
Pressure: 29.87"   Gusts: NA
Location:  43.21°N, 85.07°W
Report Text: KY70 250654Z AUTO 20006KT 5SM BR BKN090 10/09 A2987 RMK AO2 T00960090
Loading
Personal Weather Stations






























Interactive Weather Map
Tropical Storm Tracking
New forecast layout! Learn more

10-Day Weather Forecast

Advertisements
Track Severe Weather on mobile